createdAt,value
2017-03-26T00:00:17.024Z,43.5
2017-03-26T00:00:57.558Z,43.5
2017-03-26T00:01:38.049Z,43.21
2017-03-26T00:02:18.616Z,43.31
2017-03-26T00:02:59.072Z,43.5
2017-03-26T00:03:39.623Z,43.6
2017-03-26T00:04:20.163Z,43.6
2017-03-26T00:05:00.697Z,43.6
2017-03-26T00:05:41.255Z,43.41
2017-03-26T00:06:21.840Z,42.83
2017-03-26T00:07:02.366Z,42.93
2017-03-26T00:07:42.936Z,43.31
2017-03-26T00:08:23.425Z,43.31
2017-03-26T00:09:03.974Z,43.21
2017-03-26T00:09:44.538Z,43.41
2017-03-26T00:10:25.077Z,43.5
2017-03-26T00:11:05.538Z,43.5
2017-03-26T00:11:46.038Z,43.41
2017-03-26T00:12:26.586Z,43.41
2017-03-26T00:13:07.108Z,43.12
2017-03-26T00:13:47.643Z,43.31
2017-03-26T00:14:28.167Z,43.41
2017-03-26T00:15:08.715Z,43.31
2017-03-26T00:15:49.245Z,43.21
2017-03-26T00:16:29.739Z,43.48
2017-03-26T00:17:10.291Z,43.76
2017-03-26T00:17:50.787Z,43.86
2017-03-26T00:18:31.272Z,43.88
2017-03-26T00:19:11.783Z,43.76
2017-03-26T00:19:52.277Z,43.69
2017-03-26T00:20:32.786Z,43.6
2017-03-26T00:21:13.298Z,44.53
2017-03-26T00:21:53.871Z,44.43
2017-03-26T00:22:34.345Z,44.53
2017-03-26T00:23:14.885Z,44.34
2017-03-26T00:23:55.389Z,44.34
2017-03-26T00:24:35.901Z,44.14
2017-03-26T00:25:16.440Z,43.95
2017-03-26T00:25:57.054Z,44.05
2017-03-26T00:26:37.573Z,43.95
2017-03-26T00:27:18.139Z,44.05
2017-03-26T00:27:58.602Z,43.76
2017-03-26T00:28:39.164Z,43.67
2017-03-26T00:29:19.661Z,43.57
2017-03-26T00:30:00.187Z,44.14
2017-03-26T00:30:40.720Z,44.14
2017-03-26T00:31:21.276Z,43.67
2017-03-26T00:32:01.759Z,43.67
2017-03-26T00:32:42.304Z,43.57
2017-03-26T00:33:22.827Z,43.48
2017-03-26T00:34:03.341Z,44.14
2017-03-26T00:34:43.805Z,43.76
2017-03-26T00:35:24.359Z,43.48
2017-03-26T00:36:04.832Z,43.48
2017-03-26T00:36:45.339Z,43.29
2017-03-26T00:37:25.838Z,43.57
2017-03-26T00:38:06.354Z,43.29
2017-03-26T00:38:46.876Z,43.48
2017-03-26T00:39:27.394Z,43.48
2017-03-26T00:40:07.932Z,43.48
2017-03-26T00:40:48.426Z,43.57
2017-03-26T00:41:28.999Z,43.38
2017-03-26T00:42:09.435Z,42.82
2017-03-26T00:42:49.972Z,43.19
2017-03-26T00:43:30.481Z,43.48
2017-03-26T00:44:11.009Z,43.57
2017-03-26T00:44:51.550Z,43.57
2017-03-26T00:45:32.077Z,43.76
2017-03-26T00:46:12.600Z,43.76
2017-03-26T00:46:53.648Z,43.86
2017-03-26T00:47:34.169Z,43.29
2017-03-26T00:48:14.662Z,43.76
2017-03-26T00:48:55.178Z,43.38
2017-03-26T00:49:35.726Z,43.76
2017-03-26T00:50:16.294Z,43.67
2017-03-26T00:50:56.860Z,43.67
2017-03-26T00:51:37.372Z,44.05
2017-03-26T00:52:17.874Z,43.86
2017-03-26T00:52:58.405Z,43.67
2017-03-26T00:53:38.947Z,43.67
2017-03-26T00:54:19.468Z,43.76
2017-03-26T00:55:00.953Z,43.67
2017-03-26T00:55:41.436Z,43.76
2017-03-26T00:56:21.957Z,43.01
2017-03-26T00:57:02.477Z,43.19
2017-03-26T00:57:43.035Z,43.48
2017-03-26T00:58:23.545Z,43.19
2017-03-26T00:59:04.071Z,43.38
2017-03-26T00:59:44.633Z,43.29
2017-03-26T01:00:25.172Z,43.38
2017-03-26T01:01:05.716Z,43.38
2017-03-26T01:01:46.241Z,43.29
2017-03-26T01:02:26.797Z,43.1
2017-03-26T01:03:07.389Z,42.82
2017-03-26T01:03:47.903Z,43.1
2017-03-26T01:04:28.459Z,43.27
2017-03-26T01:05:09.082Z,43.36
2017-03-26T01:05:49.533Z,43.74
2017-03-26T01:06:30.036Z,43.65
2017-03-26T01:07:10.564Z,43.65
2017-03-26T01:07:51.121Z,43.65
2017-03-26T01:08:31.599Z,43.65
2017-03-26T01:09:12.167Z,43.17
2017-03-26T01:09:52.683Z,43.65
2017-03-26T01:10:33.276Z,43.46
2017-03-26T01:11:13.800Z,43.55
2017-03-26T01:11:54.343Z,43.74
2017-03-26T01:12:34.871Z,43.74
2017-03-26T01:13:15.449Z,43.27
2017-03-26T01:13:55.927Z,43.17
2017-03-26T01:14:36.423Z,43.36
2017-03-26T01:15:16.951Z,43.36
2017-03-26T01:15:57.490Z,43.27
2017-03-26T01:16:38.072Z,43.27
2017-03-26T01:17:18.525Z,43.36
2017-03-26T01:17:59.057Z,43.65
2017-03-26T01:18:39.559Z,43.74
2017-03-26T01:19:20.113Z,43.65
2017-03-26T01:20:00.605Z,43.46
2017-03-26T01:20:41.109Z,43.55
2017-03-26T01:21:21.629Z,43.17
2017-03-26T01:22:02.146Z,43.65
2017-03-26T01:24:16.411Z,43.65
2017-03-26T01:24:56.895Z,43.65
2017-03-26T01:25:37.425Z,43.74
2017-03-26T01:26:17.932Z,43.36
2017-03-26T01:26:58.484Z,43.36
2017-03-26T01:27:38.983Z,43.27
2017-03-26T01:28:19.483Z,43.27
2017-03-26T01:29:00.010Z,43.36
2017-03-26T01:29:40.530Z,43.27
2017-03-26T01:30:21.046Z,43.46
2017-03-26T01:31:01.622Z,43.08
2017-03-26T01:31:42.142Z,43.08
2017-03-26T01:32:22.622Z,42.79
2017-03-26T01:33:03.158Z,43.17
2017-03-26T01:33:43.692Z,42.89
2017-03-26T01:34:24.184Z,42.89
2017-03-26T01:35:04.724Z,42.79
2017-03-26T01:35:45.250Z,42.6
2017-03-26T01:36:25.750Z,42.51
2017-03-26T01:37:06.295Z,42.6
2017-03-26T01:37:47.427Z,42.7
2017-03-26T01:38:28.009Z,42.79
2017-03-26T01:39:08.617Z,42.7
2017-03-26T01:39:49.111Z,42.6
2017-03-26T01:40:29.641Z,42.89
2017-03-26T01:41:10.169Z,42.6
2017-03-26T01:41:50.689Z,42.89
2017-03-26T01:42:31.221Z,42.79
2017-03-26T01:43:11.718Z,42.89
2017-03-26T01:43:52.222Z,42.89
2017-03-26T01:44:32.752Z,42.89
2017-03-26T01:45:13.301Z,42.79
2017-03-26T01:45:53.851Z,42.98
2017-03-26T01:46:34.421Z,42.79
2017-03-26T01:47:14.956Z,42.89
2017-03-26T01:47:55.557Z,42.79
2017-03-26T01:48:36.149Z,42.7
2017-03-26T01:49:16.666Z,42.7
2017-03-26T01:49:57.170Z,42.89
2017-03-26T01:50:37.686Z,42.89
2017-03-26T01:51:18.245Z,42.51
2017-03-26T01:51:58.749Z,42.79
2017-03-26T01:52:39.287Z,42.79
2017-03-26T01:53:19.816Z,42.79
2017-03-26T01:54:00.377Z,42.51
2017-03-26T01:54:40.894Z,42.32
2017-03-26T01:55:21.417Z,42.6
2017-03-26T01:56:01.994Z,42.51
2017-03-26T01:56:42.553Z,42.41
2017-03-26T01:57:23.064Z,42.6
2017-03-26T01:58:03.568Z,42.7
2017-03-26T01:58:44.112Z,42.6
2017-03-26T01:59:24.662Z,42.03
2017-03-26T02:00:05.180Z,42.13
2017-03-26T02:00:45.684Z,41.94
2017-03-26T02:01:26.211Z,41.85
2017-03-26T02:02:06.769Z,41.85
2017-03-26T02:02:47.315Z,42.03
2017-03-26T02:03:27.857Z,41.85
2017-03-26T02:04:08.398Z,41.85
2017-03-26T02:04:48.924Z,41.94
2017-03-26T02:05:29.411Z,42.6
2017-03-26T02:06:09.918Z,42.6
2017-03-26T02:06:50.434Z,42.41
2017-03-26T02:07:30.934Z,42.51
2017-03-26T02:08:11.426Z,42.6
2017-03-26T02:08:51.947Z,42.79
2017-03-26T02:09:32.506Z,42.7
2017-03-26T02:10:13.037Z,42.51
2017-03-26T02:10:53.567Z,42.6
2017-03-26T02:11:34.618Z,42.7
2017-03-26T02:12:15.186Z,42.7
2017-03-26T02:12:55.747Z,42.89
2017-03-26T02:13:36.291Z,43.17
2017-03-26T02:14:16.830Z,43.08
2017-03-26T02:14:57.393Z,42.98
2017-03-26T02:15:37.925Z,42.79
2017-03-26T02:16:18.442Z,43.08
2017-03-26T02:16:58.992Z,42.98
2017-03-26T02:17:39.532Z,42.7
2017-03-26T02:18:20.089Z,43.19
2017-03-26T02:19:00.633Z,43.17
2017-03-26T02:19:41.171Z,43.27
2017-03-26T02:20:21.732Z,42.79
2017-03-26T02:21:02.295Z,43.08
2017-03-26T02:21:42.837Z,43.17
2017-03-26T02:22:23.375Z,43.08
2017-03-26T02:23:03.893Z,42.91
2017-03-26T02:23:45.124Z,43.01
2017-03-26T02:24:25.677Z,42.7
2017-03-26T02:25:06.251Z,43.19
2017-03-26T02:25:46.733Z,43.29
2017-03-26T02:26:27.208Z,43.19
2017-03-26T02:27:07.758Z,43.1
2017-03-26T02:27:48.330Z,42.91
2017-03-26T02:28:28.874Z,42.72
2017-03-26T02:29:09.392Z,43.01
2017-03-26T02:29:49.959Z,43.29
2017-03-26T02:30:30.485Z,42.82
2017-03-26T02:31:11.039Z,43.38
2017-03-26T02:31:51.609Z,43.29
2017-03-26T02:32:32.137Z,43.01
2017-03-26T02:33:12.617Z,42.91
2017-03-26T02:33:53.098Z,43.29
2017-03-26T02:34:33.640Z,43.29
2017-03-26T02:35:14.154Z,43.48
2017-03-26T02:35:54.622Z,43.76
2017-03-26T02:36:35.164Z,43.48
2017-03-26T02:37:15.651Z,43.48
2017-03-26T02:37:56.197Z,44.24
2017-03-26T02:38:36.752Z,44.43
2017-03-26T02:39:17.254Z,44.24
2017-03-26T02:39:57.777Z,44.4
2017-03-26T02:40:38.385Z,44.79
2017-03-26T02:41:18.927Z,44.88
2017-03-26T02:41:59.460Z,44.6
2017-03-26T02:42:40.012Z,44.69
2017-03-26T02:43:20.493Z,44.79
2017-03-26T02:44:01.023Z,44.79
2017-03-26T02:44:41.555Z,44.79
2017-03-26T02:45:22.074Z,44.79
2017-03-26T02:46:02.638Z,44.79
2017-03-26T02:46:43.198Z,44.69
2017-03-26T02:47:23.732Z,44.69
2017-03-26T02:48:04.289Z,44.69
2017-03-26T02:48:44.780Z,44.5
2017-03-26T02:49:25.331Z,44.5
2017-03-26T02:50:05.807Z,44.6
2017-03-26T02:50:46.340Z,44.79
2017-03-26T02:51:26.829Z,44.69
2017-03-26T02:52:07.361Z,44.88
2017-03-26T02:52:47.910Z,44.69
2017-03-26T02:53:28.451Z,44.88
2017-03-26T02:54:09.037Z,44.4
2017-03-26T02:54:49.588Z,44.5
2017-03-26T02:55:30.096Z,44.79
2017-03-26T02:56:10.656Z,45.73
2017-03-26T02:56:51.179Z,45.45
2017-03-26T02:57:31.694Z,45.92
2017-03-26T02:58:12.229Z,45.52
2017-03-26T02:58:52.717Z,45.71
2017-03-26T02:59:33.258Z,45.81
2017-03-26T03:00:13.781Z,45.71
2017-03-26T03:00:54.282Z,45.62
2017-03-26T03:01:34.787Z,45.43
2017-03-26T03:02:15.307Z,45.9
2017-03-26T03:02:55.821Z,45.71
2017-03-26T03:03:36.373Z,45.9
2017-03-26T03:04:16.883Z,45.71
2017-03-26T03:04:57.388Z,45.9
2017-03-26T03:05:37.898Z,45.71
2017-03-26T03:06:18.405Z,45.81
2017-03-26T03:06:58.934Z,45.33
2017-03-26T03:07:39.424Z,45.14
2017-03-26T03:08:19.942Z,45.62
2017-03-26T03:09:00.447Z,45.52
2017-03-26T03:09:40.978Z,45.71
2017-03-26T03:10:21.486Z,45.52
2017-03-26T03:11:02.041Z,45.52
2017-03-26T03:11:42.502Z,45.24
2017-03-26T03:12:23.028Z,45.71
2017-03-26T03:13:03.508Z,45.43
2017-03-26T03:13:43.983Z,45.24
2017-03-26T03:14:24.486Z,45.33
2017-03-26T03:15:05.027Z,44.95
2017-03-26T03:15:45.537Z,44.76
2017-03-26T03:16:26.036Z,44.76
2017-03-26T03:17:06.558Z,44.76
2017-03-26T03:17:47.088Z,44.85
2017-03-26T03:18:27.600Z,44.38
2017-03-26T03:19:08.093Z,44.48
2017-03-26T03:19:48.586Z,44.2
2017-03-26T03:20:29.096Z,44.2
2017-03-26T03:21:09.626Z,44.38
2017-03-26T03:21:50.186Z,44.2
2017-03-26T03:22:30.683Z,43.91
2017-03-26T03:23:11.185Z,43.53
2017-03-26T03:23:51.694Z,43.72
2017-03-26T03:24:32.192Z,43.43
2017-03-26T03:25:12.734Z,43.62
2017-03-26T03:25:53.243Z,43.72
2017-03-26T03:26:33.759Z,43.62
2017-03-26T03:27:14.267Z,43.62
2017-03-26T03:27:54.781Z,43.72
2017-03-26T03:28:35.285Z,43.72
2017-03-26T03:29:15.902Z,43.62
2017-03-26T03:29:56.487Z,43.62
2017-03-26T03:30:37.096Z,43.62
2017-03-26T03:31:17.695Z,43.62
2017-03-26T03:31:58.289Z,43.62
2017-03-26T03:32:38.854Z,43.53
2017-03-26T03:33:19.462Z,43.53
2017-03-26T03:34:00.092Z,43.53
2017-03-26T03:34:40.657Z,43.72
2017-03-26T03:35:21.257Z,43.53
2017-03-26T03:36:01.758Z,43.62
2017-03-26T03:36:42.416Z,43.62
2017-03-26T03:37:22.965Z,43.72
2017-03-26T03:38:03.505Z,43.62
2017-03-26T03:38:44.095Z,43.62
2017-03-26T03:39:24.590Z,43.34
2017-03-26T03:40:05.102Z,43.62
2017-03-26T03:40:45.745Z,43.72
2017-03-26T03:41:26.313Z,43.72
2017-03-26T03:42:06.869Z,43.72
2017-03-26T03:42:47.459Z,43.72
2017-03-26T03:43:28.012Z,43.82
2017-03-26T03:44:08.600Z,43.53
2017-03-26T03:44:49.222Z,43.72
2017-03-26T03:45:29.885Z,43.82
2017-03-26T03:46:10.374Z,43.72
2017-03-26T03:46:50.934Z,43.82
2017-03-26T03:47:31.490Z,43.62
2017-03-26T03:48:12.104Z,43.72
2017-03-26T03:48:52.689Z,43.82
2017-03-26T03:49:33.282Z,43.72
2017-03-26T03:50:13.796Z,43.72
2017-03-26T03:50:54.461Z,43.72
2017-03-26T03:51:35.073Z,43.34
2017-03-26T03:52:15.828Z,43.53
2017-03-26T03:52:56.452Z,43.43
2017-03-26T03:53:36.975Z,43.24
2017-03-26T03:54:17.494Z,43.15
2017-03-26T03:54:58.052Z,43.15
2017-03-26T03:55:39.166Z,43.43
2017-03-26T03:56:19.845Z,43.24
2017-03-26T03:57:00.371Z,43.43
2017-03-26T03:57:40.978Z,43.72
2017-03-26T03:58:21.578Z,43.72
2017-03-26T03:59:02.206Z,43.72
2017-03-26T03:59:42.777Z,43.82
2017-03-26T04:00:23.334Z,43.34
2017-03-26T04:01:03.804Z,43.24
2017-03-26T04:01:44.382Z,43.34
2017-03-26T04:02:24.912Z,43.62
2017-03-26T04:03:05.386Z,43.62
2017-03-26T04:03:45.905Z,43.34
2017-03-26T04:04:26.547Z,42.96
2017-03-26T04:05:07.057Z,43.62
2017-03-26T04:05:47.593Z,43.6
2017-03-26T04:06:28.146Z,43.51
2017-03-26T04:07:09.073Z,42.94
2017-03-26T04:07:49.553Z,43.72
2017-03-26T04:08:30.060Z,43.6
2017-03-26T04:09:10.600Z,43.13
2017-03-26T04:09:51.141Z,43.72
2017-03-26T04:10:31.707Z,43.6
2017-03-26T04:11:12.233Z,43.51
2017-03-26T04:11:52.763Z,43.6
2017-03-26T04:12:33.262Z,44.08
2017-03-26T04:13:13.875Z,43.98
2017-03-26T04:13:54.398Z,43.6
2017-03-26T04:14:34.923Z,43.6
2017-03-26T04:15:15.412Z,43.51
2017-03-26T04:15:56.006Z,43.51
2017-03-26T04:16:36.554Z,43.79
2017-03-26T04:17:17.150Z,43.7
2017-03-26T04:17:57.679Z,44.08
2017-03-26T04:18:38.192Z,43.88
2017-03-26T04:19:18.687Z,43.51
2017-03-26T04:19:59.238Z,43.51
2017-03-26T04:20:39.795Z,43.6
2017-03-26T04:21:20.280Z,44.08
2017-03-26T04:22:00.828Z,43.79
2017-03-26T04:22:41.346Z,43.7
2017-03-26T04:23:21.993Z,43.98
2017-03-26T04:24:02.552Z,43.6
2017-03-26T04:24:43.098Z,43.51
2017-03-26T04:25:23.608Z,43.88
2017-03-26T04:26:04.107Z,43.51
2017-03-26T04:26:44.636Z,43.51
2017-03-26T04:27:25.172Z,43.6
2017-03-26T04:28:05.715Z,43.6
2017-03-26T04:28:46.390Z,43.7
2017-03-26T04:29:26.957Z,43.7
2017-03-26T04:30:07.446Z,43.51
2017-03-26T04:30:48.071Z,43.32
2017-03-26T04:31:28.564Z,43.23
2017-03-26T04:32:09.140Z,43.41
2017-03-26T04:32:49.682Z,43.23
2017-03-26T04:33:30.234Z,43.51
2017-03-26T04:34:10.763Z,43.13
2017-03-26T04:34:51.265Z,43.32
2017-03-26T04:35:31.830Z,43.41
2017-03-26T04:36:12.363Z,43.23
2017-03-26T04:36:52.832Z,43.23
2017-03-26T04:37:33.371Z,43.79
2017-03-26T04:38:13.883Z,43.51
2017-03-26T04:38:54.392Z,43.88
2017-03-26T04:39:34.880Z,43.98
2017-03-26T04:40:15.374Z,43.98
2017-03-26T04:40:55.942Z,44.46
2017-03-26T04:41:36.472Z,44.36
2017-03-26T04:42:17.017Z,44.55
2017-03-26T04:42:57.556Z,44.55
2017-03-26T04:43:38.042Z,44.55
2017-03-26T04:44:18.550Z,44.65
2017-03-26T04:44:59.054Z,44.17
2017-03-26T04:45:39.578Z,44.08
2017-03-26T04:46:20.129Z,44.08
2017-03-26T04:47:00.655Z,43.98
2017-03-26T04:47:41.180Z,44.27
2017-03-26T04:48:21.748Z,44.08
2017-03-26T04:49:02.272Z,43.88
2017-03-26T04:49:42.834Z,43.51
2017-03-26T04:50:23.393Z,43.6
2017-03-26T04:51:03.952Z,43.7
2017-03-26T04:51:44.448Z,43.6
2017-03-26T04:52:25.006Z,42.94
2017-03-26T04:53:05.617Z,43.32
2017-03-26T04:53:46.185Z,43.23
2017-03-26T04:54:26.743Z,43.7
2017-03-26T04:55:07.326Z,43.23
2017-03-26T04:55:47.848Z,42.85
2017-03-26T04:56:28.375Z,43.79
2017-03-26T04:57:08.904Z,43.32
2017-03-26T04:57:49.510Z,43.6
2017-03-26T04:58:30.096Z,43.6
2017-03-26T04:59:10.788Z,43.51
2017-03-26T04:59:51.332Z,43.79
2017-03-26T05:00:31.897Z,43.98
2017-03-26T05:01:12.456Z,44.17
2017-03-26T05:01:52.985Z,44.65
2017-03-26T05:02:33.549Z,44.27
2017-03-26T05:03:14.171Z,45.03
2017-03-26T05:03:54.716Z,45.03
2017-03-26T05:04:35.246Z,44.55
2017-03-26T05:05:15.784Z,44.55
2017-03-26T05:05:56.368Z,44.27
2017-03-26T05:06:36.939Z,44.27
2017-03-26T05:07:18.110Z,44.36
2017-03-26T05:07:58.705Z,44.46
2017-03-26T05:08:39.343Z,44.55
2017-03-26T05:09:19.870Z,44.65
2017-03-26T05:10:00.385Z,44.55
2017-03-26T05:10:40.896Z,44.55
2017-03-26T05:11:21.426Z,44.74
2017-03-26T05:12:01.936Z,44.55
2017-03-26T05:12:42.479Z,44.36
2017-03-26T05:13:23.074Z,44.17
2017-03-26T05:14:03.704Z,43.98
2017-03-26T05:14:44.179Z,43.98
2017-03-26T05:15:24.799Z,43.98
2017-03-26T05:16:05.353Z,43.98
2017-03-26T05:16:45.905Z,43.98
2017-03-26T05:17:26.512Z,44.27
2017-03-26T05:18:07.067Z,44.27
2017-03-26T05:18:47.686Z,44.46
2017-03-26T05:19:28.258Z,44.08
2017-03-26T05:20:08.802Z,44.08
2017-03-26T05:20:49.346Z,44.27
2017-03-26T05:21:29.955Z,43.79
2017-03-26T05:22:10.600Z,43.98
2017-03-26T05:22:52.040Z,43.51
2017-03-26T05:23:32.616Z,43.6
2017-03-26T05:24:13.198Z,43.41
2017-03-26T05:24:53.701Z,43.7
2017-03-26T05:25:34.221Z,43.88
2017-03-26T05:26:14.821Z,43.7
2017-03-26T05:26:55.320Z,43.79
2017-03-26T05:27:35.830Z,43.51
2017-03-26T05:28:16.376Z,43.6
2017-03-26T05:28:56.975Z,43.41
2017-03-26T05:29:37.518Z,43.51
2017-03-26T05:30:18.060Z,43.7
2017-03-26T05:30:58.659Z,43.6
2017-03-26T05:31:39.197Z,43.51
2017-03-26T05:32:19.708Z,43.6
2017-03-26T05:33:00.330Z,43.6
2017-03-26T05:33:40.816Z,43.79
2017-03-26T05:34:21.290Z,43.32
2017-03-26T05:35:01.778Z,42.85
2017-03-26T05:35:42.341Z,43.23
2017-03-26T05:36:22.841Z,43.23
2017-03-26T05:37:03.371Z,43.13
2017-03-26T05:37:43.946Z,43.32
2017-03-26T05:38:24.487Z,43.41
2017-03-26T05:39:04.989Z,43.32
2017-03-26T05:39:45.581Z,42.94
2017-03-26T05:40:26.056Z,43.04
2017-03-26T05:41:06.599Z,43.04
2017-03-26T05:41:47.171Z,43.04
2017-03-26T05:42:27.736Z,42.66
2017-03-26T05:43:08.273Z,42.85
2017-03-26T05:43:48.851Z,42.75
2017-03-26T05:44:29.381Z,42.47
2017-03-26T05:45:09.959Z,42.66
2017-03-26T05:45:50.966Z,42.56
2017-03-26T05:46:32.625Z,42.56
2017-03-26T05:47:14.102Z,42.47
2017-03-26T05:47:54.652Z,42.47
2017-03-26T05:48:35.220Z,42.37
2017-03-26T05:49:15.742Z,41.99
2017-03-26T05:49:56.278Z,41.71
2017-03-26T05:50:36.854Z,41.99
2017-03-26T05:51:17.368Z,41.8
2017-03-26T05:51:57.925Z,41.89
2017-03-26T05:52:38.533Z,41.8
2017-03-26T05:53:19.077Z,41.71
2017-03-26T05:53:59.640Z,41.8
2017-03-26T05:54:40.229Z,41.52
2017-03-26T05:55:20.842Z,41.52
2017-03-26T05:56:01.410Z,41.61
2017-03-26T05:56:41.916Z,41.52
2017-03-26T05:57:22.453Z,41.05
2017-03-26T05:58:03.373Z,41.14
2017-03-26T05:58:43.955Z,40.95
2017-03-26T05:59:24.602Z,40.95
2017-03-26T06:00:05.053Z,41.05
2017-03-26T06:00:45.572Z,40.95
2017-03-26T06:01:26.211Z,41.05
2017-03-26T06:02:06.817Z,41.14
2017-03-26T06:02:47.262Z,41.14
2017-03-26T06:03:27.871Z,41.33
2017-03-26T06:04:08.438Z,41.14
2017-03-26T06:04:48.929Z,41.24
2017-03-26T06:05:29.554Z,41.14
2017-03-26T06:06:10.103Z,41.14
2017-03-26T06:06:50.613Z,40.85
2017-03-26T06:07:31.157Z,40.85
2017-03-26T06:08:11.702Z,40.76
2017-03-26T06:08:52.242Z,41.05
2017-03-26T06:09:32.781Z,40.95
2017-03-26T06:10:13.434Z,40.85
2017-03-26T06:10:53.921Z,40.85
2017-03-26T06:11:34.438Z,41.14
2017-03-26T06:12:14.957Z,40.85
2017-03-26T06:12:55.495Z,40.47
2017-03-26T06:13:36.043Z,40.66
2017-03-26T06:14:16.569Z,40.66
2017-03-26T06:14:57.163Z,40.66
2017-03-26T06:15:37.641Z,40.57
2017-03-26T06:16:18.211Z,40.76
2017-03-26T06:16:58.749Z,40.28
2017-03-26T06:17:39.320Z,40.28
2017-03-26T06:18:19.957Z,40.5
2017-03-26T06:19:00.530Z,40.09
2017-03-26T06:19:41.068Z,40.28
2017-03-26T06:20:21.634Z,40
2017-03-26T06:21:02.239Z,40.28
2017-03-26T06:21:42.774Z,40.31
2017-03-26T06:22:23.347Z,40.19
2017-03-26T06:23:03.941Z,40.19
2017-03-26T06:23:44.395Z,40.28
2017-03-26T06:24:24.961Z,40.28
2017-03-26T06:25:05.490Z,40.28
2017-03-26T06:25:45.992Z,40.28
2017-03-26T06:26:26.544Z,40.19
2017-03-26T06:27:07.170Z,40.09
2017-03-26T06:27:47.599Z,40.31
2017-03-26T06:28:28.174Z,40.28
2017-03-26T06:29:08.725Z,40.09
2017-03-26T06:29:49.268Z,39.83
2017-03-26T06:30:29.860Z,39.83
2017-03-26T06:31:10.376Z,39.83
2017-03-26T06:31:50.944Z,39.73
2017-03-26T06:32:31.452Z,39.36
2017-03-26T06:33:12.046Z,39.73
2017-03-26T06:33:52.604Z,39.64
2017-03-26T06:34:33.250Z,39.83
2017-03-26T06:35:14.406Z,39.54
2017-03-26T06:35:56.648Z,39.17
2017-03-26T06:36:39.274Z,39.26
2017-03-26T06:37:21.736Z,39.07
2017-03-26T06:38:04.098Z,39.26
2017-03-26T06:38:46.372Z,39.26
2017-03-26T06:39:28.894Z,39.17
2017-03-26T06:40:10.235Z,39.26
2017-03-26T06:40:50.929Z,38.69
2017-03-26T06:41:31.562Z,38.98
2017-03-26T06:42:12.131Z,39.07
2017-03-26T06:42:52.653Z,38.98
2017-03-26T06:43:33.170Z,39.07
2017-03-26T06:44:13.751Z,38.6
2017-03-26T06:44:54.355Z,38.6
2017-03-26T06:45:34.933Z,38.5
2017-03-26T06:46:15.529Z,38.41
2017-03-26T06:46:56.213Z,38.31
2017-03-26T06:47:36.782Z,38.41
2017-03-26T06:48:17.382Z,38.5
2017-03-26T06:48:57.910Z,38.5
2017-03-26T06:49:38.727Z,37.93
2017-03-26T06:50:19.355Z,37.84
2017-03-26T06:50:59.822Z,37.84
2017-03-26T06:51:40.351Z,37.65
2017-03-26T06:52:20.934Z,37.55
2017-03-26T06:53:01.460Z,37.55
2017-03-26T06:53:42.013Z,37.48
2017-03-26T06:54:22.618Z,37.27
2017-03-26T06:55:03.197Z,37.57
2017-03-26T06:55:43.743Z,37.27
2017-03-26T06:56:24.307Z,37.38
2017-03-26T06:57:04.749Z,37.37
2017-03-26T06:57:45.496Z,37.57
2017-03-26T06:58:26.126Z,37.19
2017-03-26T06:59:06.823Z,37.29
2017-03-26T06:59:47.365Z,36.91
2017-03-26T07:00:27.882Z,37.19
2017-03-26T07:01:08.452Z,37.19
2017-03-26T07:01:49.030Z,37.38
2017-03-26T07:02:29.602Z,36.63
2017-03-26T07:03:10.133Z,36.63
2017-03-26T07:03:50.642Z,36.44
2017-03-26T07:04:33.598Z,36.24
2017-03-26T07:05:14.127Z,36.44
2017-03-26T07:05:54.708Z,36.34
2017-03-26T07:06:35.356Z,36.34
2017-03-26T07:07:15.911Z,36.34
2017-03-26T07:07:56.445Z,36.24
2017-03-26T07:08:37.069Z,35.96
2017-03-26T07:09:17.611Z,36.24
2017-03-26T07:09:59.223Z,35.86
2017-03-26T07:10:39.798Z,35.96
2017-03-26T07:11:20.394Z,36.24
2017-03-26T07:12:01.092Z,35.77
2017-03-26T07:12:41.633Z,35.77
2017-03-26T07:13:22.225Z,35.96
2017-03-26T07:14:02.769Z,35.86
2017-03-26T07:14:44.445Z,35.49
2017-03-26T07:15:25.041Z,35.39
2017-03-26T07:16:05.527Z,35.41
2017-03-26T07:16:46.089Z,35.13
2017-03-26T07:17:26.621Z,35.13
2017-03-26T07:18:07.149Z,34.94
2017-03-26T07:18:47.637Z,35.31
2017-03-26T07:19:28.177Z,35.13
2017-03-26T07:20:08.729Z,35.22
2017-03-26T07:20:49.306Z,35.13
2017-03-26T07:21:29.772Z,34.94
2017-03-26T07:22:10.363Z,34.65
2017-03-26T07:22:50.850Z,34.84
2017-03-26T07:23:31.373Z,34.65
2017-03-26T07:24:11.890Z,34.55
2017-03-26T07:24:52.496Z,34.46
2017-03-26T07:25:32.997Z,34.46
2017-03-26T07:26:13.523Z,34.55
2017-03-26T07:26:54.071Z,34.17
2017-03-26T07:27:34.671Z,33.98
2017-03-26T07:28:15.215Z,33.89
2017-03-26T07:28:55.726Z,33.98
2017-03-26T07:29:36.863Z,33.89
2017-03-26T07:30:18.054Z,34.19
2017-03-26T07:30:58.641Z,33.91
2017-03-26T07:31:39.310Z,33.91
2017-03-26T07:32:19.848Z,34.09
2017-03-26T07:33:00.465Z,33.62
2017-03-26T07:33:41.007Z,33.72
2017-03-26T07:34:21.582Z,33.62
2017-03-26T07:35:02.229Z,33.72
2017-03-26T07:35:42.893Z,33.53
2017-03-26T07:36:23.495Z,33.53
2017-03-26T07:37:04.029Z,33.53
2017-03-26T07:37:44.629Z,33.15
2017-03-26T07:38:25.126Z,33.05
2017-03-26T07:39:05.763Z,32.86
2017-03-26T07:39:46.286Z,33.05
2017-03-26T07:40:26.893Z,33.24
2017-03-26T07:41:07.434Z,33.15
2017-03-26T07:41:48.016Z,33.34
2017-03-26T07:42:28.605Z,32.69
2017-03-26T07:43:09.524Z,32.88
2017-03-26T07:43:50.045Z,32.69
2017-03-26T07:44:30.572Z,32.78
2017-03-26T07:45:11.150Z,32.78
2017-03-26T07:45:51.685Z,32.4
2017-03-26T07:46:32.164Z,32.4
2017-03-26T07:47:12.672Z,32.5
2017-03-26T07:47:53.272Z,32.59
2017-03-26T07:48:33.815Z,32.97
2017-03-26T07:49:14.362Z,32.78
2017-03-26T07:49:54.922Z,32.59
2017-03-26T07:50:35.707Z,32.59
2017-03-26T07:51:16.380Z,32.59
2017-03-26T07:51:57.042Z,32.4
2017-03-26T07:52:37.678Z,32.4
2017-03-26T07:53:18.361Z,32.61
2017-03-26T07:53:58.971Z,32.4
2017-03-26T07:54:39.713Z,32.51
2017-03-26T07:55:20.251Z,32.32
2017-03-26T07:56:00.852Z,32.04
2017-03-26T07:56:41.379Z,32.23
2017-03-26T07:57:21.995Z,32.04
2017-03-26T07:58:02.657Z,32.61
2017-03-26T07:58:43.582Z,32.32
2017-03-26T07:59:24.102Z,32.04
2017-03-26T08:00:04.631Z,32.51
2017-03-26T08:00:45.185Z,32.32
2017-03-26T08:01:25.720Z,32.51
2017-03-26T08:02:06.251Z,32.51
2017-03-26T08:02:46.932Z,32.82
2017-03-26T08:03:27.683Z,32.8
2017-03-26T08:04:08.295Z,32.82
2017-03-26T08:04:48.843Z,33.1
2017-03-26T08:05:29.362Z,32.82
2017-03-26T08:06:09.970Z,33.29
2017-03-26T08:06:50.565Z,32.82
2017-03-26T08:07:31.100Z,33.39
2017-03-26T08:08:11.838Z,33.96
2017-03-26T08:08:52.462Z,34.63
2017-03-26T08:09:33.258Z,34.44
2017-03-26T08:10:13.810Z,34.53
2017-03-26T08:10:54.402Z,34.81
2017-03-26T08:11:35.112Z,34.72
2017-03-26T08:12:15.959Z,34.81
2017-03-26T08:12:56.635Z,35.29
2017-03-26T08:13:37.199Z,35.48
2017-03-26T08:14:17.757Z,35.38
2017-03-26T08:14:58.673Z,36.15
2017-03-26T08:15:39.596Z,36.26
2017-03-26T08:16:20.410Z,35.97
2017-03-26T08:17:02.719Z,36.35
2017-03-26T08:17:43.421Z,36.16
2017-03-26T08:18:24.202Z,36.35
2017-03-26T08:19:05.147Z,36.55
2017-03-26T08:19:45.787Z,35.97
2017-03-26T08:20:26.547Z,36.07
2017-03-26T08:21:07.289Z,35.31
2017-03-26T08:21:48.087Z,35.31
2017-03-26T08:22:28.685Z,35.02
2017-03-26T08:24:13.398Z,34.09
2017-03-26T08:24:54.124Z,34.56
2017-03-26T08:25:34.647Z,34.56
2017-03-26T08:26:15.258Z,34.85
2017-03-26T08:26:55.801Z,39.32
2017-03-26T08:27:36.771Z,41.61
2017-03-26T08:28:17.283Z,40.94
2017-03-26T08:28:57.817Z,40.56
2017-03-26T08:29:38.562Z,40.18
2017-03-26T08:30:19.164Z,39.8
2017-03-26T08:30:59.826Z,39.42
2017-03-26T08:31:40.481Z,38.66
2017-03-26T08:32:21.179Z,38.28
2017-03-26T08:33:01.601Z,37.61
2017-03-26T08:33:42.596Z,37.54
2017-03-26T08:34:23.176Z,36.68
2017-03-26T08:35:03.702Z,36.58
2017-03-26T08:35:44.225Z,36.58
2017-03-26T08:36:24.815Z,36.1
2017-03-26T08:37:05.754Z,36.1
2017-03-26T08:37:46.499Z,35.53
2017-03-26T08:38:27.078Z,35.64
2017-03-26T08:39:07.758Z,35.55
2017-03-26T08:39:48.613Z,35.55
2017-03-26T08:40:29.175Z,35.17
2017-03-26T08:41:09.701Z,34.6
2017-03-26T08:41:50.332Z,34.69
2017-03-26T08:42:30.831Z,34.69
2017-03-26T08:43:11.357Z,33.93
2017-03-26T08:43:51.893Z,34.03
2017-03-26T08:44:32.417Z,33.93
2017-03-26T08:45:12.927Z,33.95
2017-03-26T08:45:53.483Z,35.47
2017-03-26T08:46:34.092Z,34.81
2017-03-26T08:47:14.468Z,34.9